sensor_id;sensor_type;location;lat;lon;timestamp;pressure;altitude;pressure_sealevel;temperature;humidity
9460;BME280;4768;42.664;23.240;2023-02-21T00:02:19;169042.50;;;7.97;100.00
9460;BME280;4768;42.664;23.240;2023-02-21T00:05:03;168949.41;;;7.62;100.00
9460;BME280;4768;42.664;23.240;2023-02-21T00:07:47;168956.09;;;7.65;100.00
9460;BME280;4768;42.664;23.240;2023-02-21T00:10:31;169059.81;;;8.03;100.00
9460;BME280;4768;42.664;23.240;2023-02-21T00:13:16;169073.09;;;8.08;100.00
9460;BME280;4768;42.664;23.240;2023-02-21T00:16:01;169047.84;;;7.99;100.00
9460;BME280;4768;42.664;23.240;2023-02-21T00:18:46;169067.78;;;8.06;100.00
9460;BME280;4768;42.664;23.240;2023-02-21T00:21:30;169063.81;;;8.05;100.00
9460;BME280;4768;42.664;23.240;2023-02-21T00:24:15;169119.72;;;8.25;100.00
9460;BME280;4768;42.664;23.240;2023-02-21T00:26:59;169034.50;;;7.94;100.00
9460;BME280;4768;42.664;23.240;2023-02-21T00:29:45;169026.53;;;7.91;100.00
9460;BME280;4768;42.664;23.240;2023-02-21T00:32:31;169045.16;;;7.98;100.00
9460;BME280;4768;42.664;23.240;2023-02-21T00:35:15;169045.16;;;7.98;100.00
9460;BME280;4768;42.664;23.240;2023-02-21T00:38:00;169029.22;;;7.92;100.00
9460;BME280;4768;42.664;23.240;2023-02-21T00:40:44;169141.00;;;8.33;100.00
9460;BME280;4768;42.664;23.240;2023-02-21T00:43:28;169089.13;;;8.14;100.00
9460;BME280;4768;42.664;23.240;2023-02-21T00:46:13;169049.16;;;7.99;100.00
9460;BME280;4768;42.664;23.240;2023-02-21T00:48:58;169010.56;;;7.85;100.00
9460;BME280;4768;42.664;23.240;2023-02-21T00:51:46;169007.94;;;7.84;100.00
9460;BME280;4768;42.664;23.240;2023-02-21T00:54:30;169061.13;;;8.04;100.00
9460;BME280;4768;42.664;23.240;2023-02-21T00:57:14;169103.78;;;8.19;100.00
9460;BME280;4768;42.664;23.240;2023-02-21T00:59:58;169059.81;;;8.03;100.00
9460;BME280;4768;42.664;23.240;2023-02-21T01:02:42;169073.09;;;8.08;100.00
9460;BME280;4768;42.664;23.240;2023-02-21T01:05:28;169129.03;;;8.29;100.00
9460;BME280;4768;42.664;23.240;2023-02-21T01:08:13;169109.06;;;8.21;100.00
9460;BME280;4768;42.664;23.240;2023-02-21T01:10:57;169150.34;;;8.37;100.00
9460;BME280;4768;42.664;23.240;2023-02-21T01:13:42;169155.66;;;8.39;100.00
9460;BME280;4768;42.664;23.240;2023-02-21T01:16:27;169098.41;;;8.18;100.00
9460;BME280;4768;42.664;23.240;2023-02-21T01:19:11;169109.06;;;8.21;100.00
9460;BME280;4768;42.664;23.240;2023-02-21T01:21:56;169159.66;;;8.40;100.00
9460;BME280;4768;42.664;23.240;2023-02-21T01:24:40;169182.28;;;8.49;100.00
9460;BME280;4768;42.664;23.240;2023-02-21T01:27:25;169160.97;;;8.41;100.00
9460;BME280;4768;42.664;23.240;2023-02-21T01:30:09;169194.25;;;8.53;100.00
9460;BME280;4768;42.664;23.240;2023-02-21T01:32:53;169163.63;;;8.42;100.00
9460;BME280;4768;42.664;23.240;2023-02-21T01:35:37;169147.66;;;8.36;100.00
9460;BME280;4768;42.664;23.240;2023-02-21T01:38:23;169151.66;;;8.37;100.00
9460;BME280;4768;42.664;23.240;2023-02-21T01:41:08;169186.28;;;8.50;100.00
9460;BME280;4768;42.664;23.240;2023-02-21T01:44:00;169186.28;;;8.50;100.00
9460;BME280;4768;42.664;23.240;2023-02-21T01:46:44;169208.84;;;8.59;100.00
9460;BME280;4768;42.664;23.240;2023-02-21T01:49:29;169160.97;;;8.41;100.00
9460;BME280;4768;42.664;23.240;2023-02-21T01:52:15;169094.41;;;8.16;100.00
9460;BME280;4768;42.664;23.240;2023-02-21T01:55:02;169135.69;;;8.31;100.00
9460;BME280;4768;42.664;23.240;2023-02-21T01:57:47;169219.53;;;8.63;100.00
9460;BME280;4768;42.664;23.240;2023-02-21T02:00:32;169202.25;;;8.56;100.00
9460;BME280;4768;42.664;23.240;2023-02-21T02:03:18;169242.16;;;8.71;100.00
9460;BME280;4768;42.664;23.240;2023-02-21T02:06:07;169210.22;;;8.59;100.00
9460;BME280;4768;42.664;23.240;2023-02-21T02:08:51;169215.53;;;8.61;100.00
9460;BME280;4768;42.664;23.240;2023-02-21T02:11:48;169216.84;;;8.62;100.00
9460;BME280;4768;42.664;23.240;2023-02-21T02:14:54;169252.78;;;8.75;100.00
9460;BME280;4768;42.664;23.240;2023-02-21T02:17:35;169220.84;;;8.63;100.00
9460;BME280;4768;42.664;23.240;2023-02-21T02:20:35;169151.66;;;8.37;100.00
9460;BME280;4768;42.664;23.240;2023-02-21T02:29:30;169172.94;;;8.45;100.00
9460;BME280;4768;42.664;23.240;2023-02-21T02:32:28;169223.50;;;8.64;100.00
9460;BME280;4768;42.664;23.240;2023-02-21T02:35:02;169252.78;;;8.75;100.00
9460;BME280;4768;42.664;23.240;2023-02-21T02:37:34;169276.72;;;8.84;100.00
9460;BME280;4768;42.664;23.240;2023-02-21T02:40:16;169341.97;;;9.08;100.00
9460;BME280;4768;42.664;23.240;2023-02-21T02:42:56;169379.25;;;9.22;100.00
9460;BME280;4768;42.664;23.240;2023-02-21T02:45:30;169384.59;;;9.24;100.00
9460;BME280;4768;42.664;23.240;2023-02-21T02:48:04;169415.19;;;9.35;100.00
9460;BME280;4768;42.664;23.240;2023-02-21T02:50:33;169420.53;;;9.37;100.00
9460;BME280;4768;42.664;23.240;2023-02-21T02:53:02;169451.13;;;9.49;100.00
9460;BME280;4768;42.664;23.240;2023-02-21T02:55:39;169468.47;;;9.55;100.00
9460;BME280;4768;42.664;23.240;2023-02-21T02:58:08;169447.13;;;9.47;100.00
9460;BME280;4768;42.664;23.240;2023-02-21T03:00:37;169459.19;;;9.52;100.00
9460;BME280;4768;42.664;23.240;2023-02-21T03:06:04;169528.41;;;9.77;100.00
9460;BME280;4768;42.664;23.240;2023-02-21T03:08:43;169508.44;;;9.70;100.00
9460;BME280;4768;42.664;23.240;2023-02-21T03:11:16;169409.88;;;9.33;100.00
9460;BME280;4768;42.664;23.240;2023-02-21T03:13:46;169404.56;;;9.31;100.00
9460;BME280;4768;42.664;23.240;2023-02-21T03:16:18;169361.94;;;9.15;100.00
9460;BME280;4768;42.664;23.240;2023-02-21T03:18:48;169274.09;;;8.83;100.00
9460;BME280;4768;42.664;23.240;2023-02-21T03:21:20;169202.25;;;8.56;100.00
9460;BME280;4768;42.664;23.240;2023-02-21T03:23:50;169143.69;;;8.34;100.00
9460;BME280;4768;42.664;23.240;2023-02-21T03:26:18;169129.03;;;8.29;100.00
9460;BME280;4768;42.664;23.240;2023-02-21T03:28:46;169085.13;;;8.13;100.00
9460;BME280;4768;42.664;23.240;2023-02-21T03:31:16;169089.13;;;8.14;100.00
9460;BME280;4768;42.664;23.240;2023-02-21T03:33:45;169042.50;;;7.97;100.00
9460;BME280;4768;42.664;23.240;2023-02-21T03:36:11;169042.50;;;7.97;100.00
9460;BME280;4768;42.664;23.240;2023-02-21T03:38:41;169005.28;;;7.83;100.00
9460;BME280;4768;42.664;23.240;2023-02-21T03:41:09;168965.38;;;7.68;100.00
9460;BME280;4768;42.664;23.240;2023-02-21T03:43:37;169117.06;;;8.24;100.00
9460;BME280;4768;42.664;23.240;2023-02-21T03:46:04;169224.84;;;8.65;100.00
9460;BME280;4768;42.664;23.240;2023-02-21T03:48:30;169295.38;;;8.91;100.00
9460;BME280;4768;42.664;23.240;2023-02-21T03:50:57;169319.34;;;9.00;100.00
9460;BME280;4768;42.664;23.240;2023-02-21T03:53:24;169288.75;;;8.88;100.00
9460;BME280;4768;42.664;23.240;2023-02-21T03:55:52;169239.47;;;8.70;100.00
9460;BME280;4768;42.664;23.240;2023-02-21T03:58:19;169183.59;;;8.49;100.00
9460;BME280;4768;42.664;23.240;2023-02-21T04:00:46;169154.34;;;8.38;100.00
9460;BME280;4768;42.664;23.240;2023-02-21T04:03:12;169235.50;;;8.68;100.00
9460;BME280;4768;42.664;23.240;2023-02-21T04:05:39;169182.28;;;8.49;100.00
9460;BME280;4768;42.664;23.240;2023-02-21T04:08:06;169065.13;;;8.05;100.00
9460;BME280;4768;42.664;23.240;2023-02-21T04:10:32;169082.44;;;8.12;100.00
9460;BME280;4768;42.664;23.240;2023-02-21T04:13:01;169066.44;;;8.06;100.00
9460;BME280;4768;42.664;23.240;2023-02-21T04:15:27;169222.19;;;8.64;100.00
9460;BME280;4768;42.664;23.240;2023-02-21T04:17:54;169077.09;;;8.10;100.00
9460;BME280;4768;42.664;23.240;2023-02-21T04:20:21;168950.72;;;7.63;100.00
9460;BME280;4768;42.664;23.240;2023-02-21T04:22:47;168925.47;;;7.53;100.00
9460;BME280;4768;42.664;23.240;2023-02-21T04:25:15;168999.97;;;7.81;100.00
9460;BME280;4768;42.664;23.240;2023-02-21T04:27:41;169002.59;;;7.82;100.00
9460;BME280;4768;42.664;23.240;2023-02-21T04:30:10;168968.03;;;7.69;100.00
9460;BME280;4768;42.664;23.240;2023-02-21T04:32:37;169027.91;;;7.91;100.00
9460;BME280;4768;42.664;23.240;2023-02-21T04:35:04;169037.19;;;7.95;100.00
9460;BME280;4768;42.664;23.240;2023-02-21T04:37:31;169023.91;;;7.90;100.00
9460;BME280;4768;42.664;23.240;2023-02-21T04:39:58;168993.28;;;7.78;100.00
9460;BME280;4768;42.664;23.240;2023-02-21T04:42:25;169018.56;;;7.88;100.00
9460;BME280;4768;42.664;23.240;2023-02-21T04:44:51;168992.00;;;7.78;100.00
9460;BME280;4768;42.664;23.240;2023-02-21T04:47:20;168962.69;;;7.67;100.00
9460;BME280;4768;42.664;23.240;2023-02-21T04:49:46;169062.44;;;8.04;100.00
9460;BME280;4768;42.664;23.240;2023-02-21T04:52:16;169021.22;;;7.89;100.00
9460;BME280;4768;42.664;23.240;2023-02-21T04:54:45;168964.06;;;7.68;100.00
9460;BME280;4768;42.664;23.240;2023-02-21T04:57:12;168932.09;;;7.56;100.00
9460;BME280;4768;42.664;23.240;2023-02-21T04:59:38;168914.81;;;7.49;100.00
9460;BME280;4768;42.664;23.240;2023-02-21T05:02:05;168926.78;;;7.54;100.00
9460;BME280;4768;42.664;23.240;2023-02-21T05:04:34;168917.50;;;7.50;100.00
9460;BME280;4768;42.664;23.240;2023-02-21T05:07:01;168925.47;;;7.53;100.00
9460;BME280;4768;42.664;23.240;2023-02-21T05:09:28;168945.44;;;7.61;100.00
9460;BME280;4768;42.664;23.240;2023-02-21T05:11:55;168912.16;;;7.48;100.00
9460;BME280;4768;42.664;23.240;2023-02-21T05:14:21;168973.34;;;7.71;100.00
9460;BME280;4768;42.664;23.240;2023-02-21T05:16:50;169003.94;;;7.82;100.00
9460;BME280;4768;42.664;23.240;2023-02-21T05:19:18;168986.63;;;7.76;100.00
9460;BME280;4768;42.664;23.240;2023-02-21T05:21:53;168978.66;;;7.73;100.00
9460;BME280;4768;42.664;23.240;2023-02-21T05:24:20;169023.91;;;7.90;100.00
9460;BME280;4768;42.664;23.240;2023-02-21T05:26:47;169073.09;;;8.08;100.00
9460;BME280;4768;42.664;23.240;2023-02-21T05:29:14;169069.09;;;8.07;100.00
9460;BME280;4768;42.664;23.240;2023-02-21T05:31:41;169083.81;;;8.12;100.00
9460;BME280;4768;42.664;23.240;2023-02-21T05:34:07;169018.56;;;7.88;100.00
9460;BME280;4768;42.664;23.240;2023-02-21T05:36:34;169025.22;;;7.90;100.00
9460;BME280;4768;42.664;23.240;2023-02-21T05:39:03;169034.50;;;7.94;100.00
9460;BME280;4768;42.664;23.240;2023-02-21T05:41:30;169081.09;;;8.11;100.00
9460;BME280;4768;42.664;23.240;2023-02-21T05:43:57;169114.44;;;8.23;100.00
9460;BME280;4768;42.664;23.240;2023-02-21T05:46:25;169183.59;;;8.49;100.00
9460;BME280;4768;42.664;23.240;2023-02-21T05:48:52;169223.50;;;8.64;100.00
9460;BME280;4768;42.664;23.240;2023-02-21T05:51:19;169207.53;;;8.58;100.00
9460;BME280;4768;42.664;23.240;2023-02-21T05:53:47;169304.72;;;8.94;100.00
9460;BME280;4768;42.664;23.240;2023-02-21T05:56:16;169359.28;;;9.14;100.00
9460;BME280;4768;42.664;23.240;2023-02-21T05:58:44;169413.88;;;9.35;100.00
9460;BME280;4768;42.664;23.240;2023-02-21T06:01:11;169451.13;;;9.49;100.00
9460;BME280;4768;42.664;23.240;2023-02-21T06:03:38;169383.25;;;9.23;100.00
9460;BME280;4768;42.664;23.240;2023-02-21T06:06:05;169408.56;;;9.33;100.00
9460;BME280;4768;42.664;23.240;2023-02-21T06:08:32;169405.88;;;9.32;100.00
9460;BME280;4768;42.664;23.240;2023-02-21T06:11:07;169384.59;;;9.24;100.00
9460;BME280;4768;42.664;23.240;2023-02-21T06:13:35;169348.66;;;9.11;100.00
9460;BME280;4768;42.664;23.240;2023-02-21T06:16:01;169379.25;;;9.22;100.00
9460;BME280;4768;42.664;23.240;2023-02-21T06:18:28;169395.22;;;9.28;100.00
9460;BME280;4768;42.664;23.240;2023-02-21T06:20:55;169425.84;;;9.39;100.00
9460;BME280;4768;42.664;23.240;2023-02-21T06:23:22;169400.56;;;9.30;100.00
9460;BME280;4768;42.664;23.240;2023-02-21T06:25:48;169437.84;;;9.44;100.00
9460;BME280;4768;42.664;23.240;2023-02-21T06:28:15;169480.47;;;9.60;100.00
9460;BME280;4768;42.664;23.240;2023-02-21T06:30:43;169521.72;;;9.75;100.00
9460;BME280;4768;42.664;23.240;2023-02-21T06:33:11;169496.44;;;9.65;100.00
9460;BME280;4768;42.664;23.240;2023-02-21T06:35:37;169499.13;;;9.66;100.00
9460;BME280;4768;42.664;23.240;2023-02-21T06:38:04;169541.69;;;9.82;100.00
9460;BME280;4768;42.664;23.240;2023-02-21T06:40:31;169603.06;;;10.05;100.00
9460;BME280;4768;42.664;23.240;2023-02-21T06:42:58;169604.38;;;10.06;100.00
9460;BME280;4768;42.664;23.240;2023-02-21T06:45:24;169617.69;;;10.11;100.00
9460;BME280;4768;42.664;23.240;2023-02-21T06:47:52;169685.66;;;10.36;100.00
9460;BME280;4768;42.664;23.240;2023-02-21T06:50:19;169709.66;;;10.45;100.00
9460;BME280;4768;42.664;23.240;2023-02-21T06:52:46;169784.25;;;10.72;100.00
9460;BME280;4768;42.664;23.240;2023-02-21T06:55:12;169720.28;;;10.49;100.00
9460;BME280;4768;42.664;23.240;2023-02-21T06:57:39;169679.00;;;10.33;100.00
9460;BME280;4768;42.664;23.240;2023-02-21T07:00:07;169676.31;;;10.32;100.00
9460;BME280;4768;42.664;23.240;2023-02-21T07:02:34;169741.63;;;10.57;100.00
9460;BME280;4768;42.664;23.240;2023-02-21T07:05:03;169836.25;;;10.92;100.00
9460;BME280;4768;42.664;23.240;2023-02-21T07:07:31;169845.56;;;10.95;100.00
9460;BME280;4768;42.664;23.240;2023-02-21T07:09:58;169910.88;;;11.19;100.00
9460;BME280;4768;42.664;23.240;2023-02-21T07:12:24;169885.56;;;11.10;100.00
9460;BME280;4768;42.664;23.240;2023-02-21T07:14:52;169820.28;;;10.86;100.00
9460;BME280;4768;42.664;23.240;2023-02-21T07:17:18;169769.63;;;10.67;100.00
9460;BME280;4768;42.664;23.240;2023-02-21T07:19:45;169749.63;;;10.60;100.00
9460;BME280;4768;42.664;23.240;2023-02-21T07:22:13;169781.59;;;10.71;100.00
9460;BME280;4768;42.664;23.240;2023-02-21T07:24:40;169725.63;;;10.51;100.00
9460;BME280;4768;42.664;23.240;2023-02-21T07:27:07;169732.28;;;10.53;100.00
9460;BME280;4768;42.664;23.240;2023-02-21T07:29:34;169742.94;;;10.57;100.00
9460;BME280;4768;42.664;23.240;2023-02-21T07:32:00;169780.25;;;10.71;100.00
9460;BME280;4768;42.664;23.240;2023-02-21T07:34:27;169817.59;;;10.85;100.00
9460;BME280;4768;42.664;23.240;2023-02-21T07:36:54;169810.91;;;10.82;100.00
9460;BME280;4768;42.664;23.240;2023-02-21T07:39:22;169852.25;;;10.98;100.00
9460;BME280;4768;42.664;23.240;2023-02-21T07:41:49;169958.88;;;11.37;100.00
9460;BME280;4768;42.664;23.240;2023-02-21T07:44:16;169936.25;;;11.29;100.00
9460;BME280;4768;42.664;23.240;2023-02-21T07:46:43;169885.56;;;11.10;100.00
9460;BME280;4768;42.664;23.240;2023-02-21T07:49:10;169856.25;;;10.99;100.00
9460;BME280;4768;42.664;23.240;2023-02-21T07:51:37;169865.56;;;11.03;100.00
9460;BME280;4768;42.664;23.240;2023-02-21T07:54:04;169902.88;;;11.16;100.00
9460;BME280;4768;42.664;23.240;2023-02-21T07:56:32;169897.56;;;11.14;100.00
9460;BME280;4768;42.664;23.240;2023-02-21T07:58:59;169845.56;;;10.95;100.00
9460;BME280;4768;42.664;23.240;2023-02-21T08:01:26;169809.59;;;10.82;100.00
9460;BME280;4768;42.664;23.240;2023-02-21T08:03:53;169790.91;;;10.75;100.00
9460;BME280;4768;42.664;23.240;2023-02-21T08:06:20;169801.59;;;10.79;100.00
9460;BME280;4768;42.664;23.240;2023-02-21T08:08:46;169797.59;;;10.77;100.00
9460;BME280;4768;42.664;23.240;2023-02-21T08:11:13;169804.28;;;10.80;100.00
9460;BME280;4768;42.664;23.240;2023-02-21T08:13:41;169784.25;;;10.72;100.00
9460;BME280;4768;42.664;23.240;2023-02-21T08:16:08;169805.59;;;10.80;100.00
9460;BME280;4768;42.664;23.240;2023-02-21T08:18:35;169824.28;;;10.87;100.00
9460;BME280;4768;42.664;23.240;2023-02-21T08:21:01;169890.88;;;11.12;100.00
9460;BME280;4768;42.664;23.240;2023-02-21T08:23:28;169802.91;;;10.79;100.00
9460;BME280;4768;42.664;23.240;2023-02-21T08:25:55;169801.59;;;10.79;100.00
9460;BME280;4768;42.664;23.240;2023-02-21T08:28:22;169844.25;;;10.95;100.00
9460;BME280;4768;42.664;23.240;2023-02-21T08:30:50;169828.28;;;10.89;100.00
9460;BME280;4768;42.664;23.240;2023-02-21T08:33:18;169868.25;;;11.04;100.00
9460;BME280;4768;42.664;23.240;2023-02-21T08:35:45;169944.22;;;11.32;100.00
9460;BME280;4768;42.664;23.240;2023-02-21T08:38:12;169988.28;;;11.48;100.00
9460;BME280;4768;42.664;23.240;2023-02-21T08:40:39;170064.28;;;11.76;95.59
9460;BME280;4768;42.664;23.240;2023-02-21T08:43:05;170097.63;;;11.89;92.96
9460;BME280;4768;42.664;23.240;2023-02-21T08:45:32;170145.69;;;12.07;90.85
9460;BME280;4768;42.664;23.240;2023-02-21T08:48:00;170201.69;;;12.27;87.47
9460;BME280;4768;42.664;23.240;2023-02-21T08:50:27;170265.75;;;12.51;83.82
9460;BME280;4768;42.664;23.240;2023-02-21T08:52:54;170284.38;;;12.58;84.41
9460;BME280;4768;42.664;23.240;2023-02-21T08:55:22;170332.47;;;12.76;82.99
9460;BME280;4768;42.664;23.240;2023-02-21T08:57:50;170323.09;;;12.72;80.11
9460;BME280;4768;42.664;23.240;2023-02-21T09:00:19;170361.88;;;12.87;79.69
9460;BME280;4768;42.664;23.240;2023-02-21T09:02:48;170380.56;;;12.94;80.22
9460;BME280;4768;42.664;23.240;2023-02-21T09:05:18;170421.91;;;13.09;79.11
9460;BME280;4768;42.664;23.240;2023-02-21T09:07:47;170465.97;;;13.25;77.36
9460;BME280;4768;42.664;23.240;2023-02-21T09:10:13;170494.00;;;13.36;74.08
9460;BME280;4768;42.664;23.240;2023-02-21T09:12:40;170563.47;;;13.61;73.92
9460;BME280;4768;42.664;23.240;2023-02-21T09:15:07;170662.28;;;13.98;72.65
9460;BME280;4768;42.664;23.240;2023-02-21T09:17:34;170738.47;;;14.26;70.89
9460;BME280;4768;42.664;23.240;2023-02-21T09:20:03;170749.13;;;14.30;69.83
9460;BME280;4768;42.664;23.240;2023-02-21T09:22:32;170723.75;;;14.21;68.40
9460;BME280;4768;42.664;23.240;2023-02-21T09:24:59;170783.88;;;14.43;68.55
9460;BME280;4768;42.664;23.240;2023-02-21T09:27:26;170805.22;;;14.51;65.95
9460;BME280;4768;42.664;23.240;2023-02-21T09:30:04;170913.50;;;14.91;67.32
9460;BME280;4768;42.664;23.240;2023-02-21T09:32:31;170880.06;;;14.79;64.23
9460;BME280;4768;42.664;23.240;2023-02-21T09:34:57;170861.41;;;14.72;64.51
9460;BME280;4768;42.664;23.240;2023-02-21T09:37:24;170918.84;;;14.93;64.82
9460;BME280;4768;42.664;23.240;2023-02-21T09:39:53;170904.13;;;14.88;64.80
9460;BME280;4768;42.664;23.240;2023-02-21T09:42:23;170937.56;;;15.00;61.98
9460;BME280;4768;42.664;23.240;2023-02-21T09:44:51;171005.78;;;15.25;63.86
9460;BME280;4768;42.664;23.240;2023-02-21T09:47:25;171120.75;;;15.68;63.05
9460;BME280;4768;42.664;23.240;2023-02-21T09:49:58;170993.75;;;15.21;61.62
9460;BME280;4768;42.664;23.240;2023-02-21T09:52:30;170977.66;;;15.15;61.45
9460;BME280;4768;42.664;23.240;2023-02-21T09:55:04;170962.94;;;15.09;61.62
9460;BME280;4768;42.664;23.240;2023-02-21T09:57:33;171087.28;;;15.55;63.03
9460;BME280;4768;42.664;23.240;2023-02-21T09:59:59;171088.66;;;15.56;59.26
9460;BME280;4768;42.664;23.240;2023-02-21T10:02:38;171053.88;;;15.43;60.88
9460;BME280;4768;42.664;23.240;2023-02-21T10:05:13;171180.91;;;15.90;60.64
9460;BME280;4768;42.664;23.240;2023-02-21T10:07:47;171140.81;;;15.75;57.52
9460;BME280;4768;42.664;23.240;2023-02-21T10:10:20;171148.81;;;15.78;54.94
9460;BME280;4768;42.664;23.240;2023-02-21T10:12:55;171221.03;;;16.05;55.63
9460;BME280;4768;42.664;23.240;2023-02-21T10:15:35;171211.69;;;16.01;52.96
9460;BME280;4768;42.664;23.240;2023-02-21T10:18:06;171285.28;;;16.29;54.17
9460;BME280;4768;42.664;23.240;2023-02-21T10:20:37;171241.09;;;16.12;51.61
9460;BME280;4768;42.664;23.240;2023-02-21T10:23:13;171262.47;;;16.20;50.96
9460;BME280;4768;42.664;23.240;2023-02-21T10:25:44;171377.56;;;16.63;51.63
9460;BME280;4768;42.664;23.240;2023-02-21T10:28:16;171321.38;;;16.42;52.27
9460;BME280;4768;42.664;23.240;2023-02-21T10:30:43;171308.03;;;16.37;52.59
9460;BME280;4768;42.664;23.240;2023-02-21T10:33:11;171251.81;;;16.16;53.91
9460;BME280;4768;42.664;23.240;2023-02-21T10:35:38;171300.00;;;16.34;51.78
9460;BME280;4768;42.664;23.240;2023-02-21T10:38:06;171354.84;;;16.54;52.48
9460;BME280;4768;42.664;23.240;2023-02-21T10:40:37;171334.78;;;16.47;51.65
9460;BME280;4768;42.664;23.240;2023-02-21T10:43:11;171321.38;;;16.42;51.61
9460;BME280;4768;42.664;23.240;2023-02-21T10:45:41;171273.22;;;16.24;49.03
9460;BME280;4768;42.664;23.240;2023-02-21T10:48:11;171336.13;;;16.47;51.72
9460;BME280;4768;42.664;23.240;2023-02-21T10:50:49;171381.56;;;16.64;51.03
9460;BME280;4768;42.664;23.240;2023-02-21T10:53:24;171429.72;;;16.82;51.52
9460;BME280;4768;42.664;23.240;2023-02-21T10:59:00;171495.34;;;17.06;48.45
9460;BME280;4768;42.664;23.240;2023-02-21T11:01:33;171577.00;;;17.37;48.81
9460;BME280;4768;42.664;23.240;2023-02-21T11:04:03;171634.59;;;17.58;49.96
9460;BME280;4768;42.664;23.240;2023-02-21T11:06:33;171501.97;;;17.09;48.16
9460;BME280;4768;42.664;23.240;2023-02-21T11:09:02;171459.19;;;16.93;48.35
9460;BME280;4768;42.664;23.240;2023-02-21T11:11:58;171594.44;;;17.43;48.61
9460;BME280;4768;42.664;23.240;2023-02-21T11:14:28;171609.13;;;17.48;49.42
9460;BME280;4768;42.664;23.240;2023-02-21T11:17:09;171583.69;;;17.39;47.42
9460;BME280;4768;42.664;23.240;2023-02-21T11:19:46;171570.34;;;17.34;47.59
9460;BME280;4768;42.664;23.240;2023-02-21T11:22:14;171590.41;;;17.42;46.95
9460;BME280;4768;42.664;23.240;2023-02-21T11:24:51;171461.84;;;16.94;49.64
9460;BME280;4768;42.664;23.240;2023-02-21T11:27:19;171542.22;;;17.24;47.14
9460;BME280;4768;42.664;23.240;2023-02-21T11:29:49;171635.91;;;17.58;48.01
9460;BME280;4768;42.664;23.240;2023-02-21T11:32:28;171638.59;;;17.59;49.06
9460;BME280;4768;42.664;23.240;2023-02-21T11:35:05;171613.13;;;17.50;46.15
9460;BME280;4768;42.664;23.240;2023-02-21T11:37:33;171615.81;;;17.51;47.32
9460;BME280;4768;42.664;23.240;2023-02-21T11:40:22;171674.72;;;17.73;45.90
9460;BME280;4768;42.664;23.240;2023-02-21T11:42:48;171631.88;;;17.57;47.53
9460;BME280;4768;42.664;23.240;2023-02-21T11:45:20;171713.56;;;17.87;47.72
9460;BME280;4768;42.664;23.240;2023-02-21T11:47:54;171775.13;;;18.10;46.75
9460;BME280;4768;42.664;23.240;2023-02-21T11:50:25;171784.53;;;18.13;45.03
9460;BME280;4768;42.664;23.240;2023-02-21T11:52:59;171702.84;;;17.83;46.17
9460;BME280;4768;42.664;23.240;2023-02-21T11:55:27;171737.66;;;17.96;47.40
9460;BME280;4768;42.664;23.240;2023-02-21T11:58:16;171698.81;;;17.82;47.07
9460;BME280;4768;42.664;23.240;2023-02-21T12:00:50;171726.94;;;17.92;47.90
9460;BME280;4768;42.664;23.240;2023-02-21T12:03:57;171793.94;;;18.17;47.89
9460;BME280;4768;42.664;23.240;2023-02-21T12:06:28;171743.00;;;17.98;47.79
9460;BME280;4768;42.664;23.240;2023-02-21T12:09:01;171619.84;;;17.52;47.61
9460;BME280;4768;42.664;23.240;2023-02-21T12:11:41;171672.03;;;17.72;47.37
9460;BME280;4768;42.664;23.240;2023-02-21T12:14:27;171674.72;;;17.73;48.25
9460;BME280;4768;42.664;23.240;2023-02-21T12:17:11;171653.28;;;17.65;47.47
9460;BME280;4768;42.664;23.240;2023-02-21T12:19:50;171639.91;;;17.60;47.55
9460;BME280;4768;42.664;23.240;2023-02-21T12:22:31;171547.56;;;17.26;48.50
9460;BME280;4768;42.664;23.240;2023-02-21T12:25:12;171574.34;;;17.36;48.94
9460;BME280;4768;42.664;23.240;2023-02-21T12:27:47;171552.91;;;17.28;49.67
9460;BME280;4768;42.664;23.240;2023-02-21T12:30:29;171504.69;;;17.10;49.63
9460;BME280;4768;42.664;23.240;2023-02-21T12:33:15;171514.09;;;17.13;50.44
9460;BME280;4768;42.664;23.240;2023-02-21T12:36:07;171469.88;;;16.97;50.24
9460;BME280;4768;42.664;23.240;2023-02-21T12:38:48;171377.56;;;16.63;50.92
9460;BME280;4768;42.664;23.240;2023-02-21T12:41:36;171353.47;;;16.54;50.53
9460;BME280;4768;42.664;23.240;2023-02-21T12:44:12;171318.69;;;16.41;51.11
9460;BME280;4768;42.664;23.240;2023-02-21T12:46:43;171321.38;;;16.42;51.51
9460;BME280;4768;42.664;23.240;2023-02-21T12:49:18;171317.38;;;16.41;51.17
9460;BME280;4768;42.664;23.240;2023-02-21T12:51:50;171377.56;;;16.63;51.48
9460;BME280;4768;42.664;23.240;2023-02-21T12:54:22;171423.09;;;16.80;51.57
9460;BME280;4768;42.664;23.240;2023-02-21T12:56:56;171495.34;;;17.06;50.26
9460;BME280;4768;42.664;23.240;2023-02-21T12:59:30;171487.31;;;17.03;49.92
9460;BME280;4768;42.664;23.240;2023-02-21T13:02:02;171551.59;;;17.27;50.27
9460;BME280;4768;42.664;23.240;2023-02-21T13:04:37;171582.38;;;17.39;49.30
9460;BME280;4768;42.664;23.240;2023-02-21T13:07:12;171598.44;;;17.44;49.58
9460;BME280;4768;42.664;23.240;2023-02-21T13:09:48;171522.09;;;17.16;48.70
9460;BME280;4768;42.664;23.240;2023-02-21T13:12:20;171585.03;;;17.40;48.49
9460;BME280;4768;42.664;23.240;2023-02-21T13:14:53;171618.50;;;17.52;48.02
9460;BME280;4768;42.664;23.240;2023-02-21T13:17:22;171631.88;;;17.57;49.08
9460;BME280;4768;42.664;23.240;2023-02-21T13:19:56;171631.88;;;17.57;48.05
9460;BME280;4768;42.664;23.240;2023-02-21T13:25:20;171686.78;;;17.77;47.42
9460;BME280;4768;42.664;23.240;2023-02-21T13:27:55;171693.50;;;17.80;47.66
9460;BME280;4768;42.664;23.240;2023-02-21T13:30:26;171697.50;;;17.81;45.91
9460;BME280;4768;42.664;23.240;2023-02-21T13:32:57;171625.16;;;17.54;46.50
9460;BME280;4768;42.664;23.240;2023-02-21T13:35:30;171722.94;;;17.91;47.40
9460;BME280;4768;42.664;23.240;2023-02-21T13:37:58;171739.00;;;17.96;46.54
9460;BME280;4768;42.664;23.240;2023-02-21T13:40:33;171749.72;;;18.00;46.21
9460;BME280;4768;42.664;23.240;2023-02-21T13:43:04;171726.94;;;17.92;44.68